Data for 09/13/2010

Time Sea-Level Adjusted Pressure Absolute Pressure Temperature Relative Humidity Dew Point   
(mb) (inHg) (mb) (inHg) (C) (F) (%) (C) (F)
00:05 1020 30.12 849 25.07 13.3 55.9 42 0.6 33.1
00:10 1020 30.12 849 25.07 13.2 55.7 42 0.6 33
00:15 1020 30.12 849 25.07 13.2 55.8 40 0.1 32.2
00:20 1020 30.12 849 25.07 13.4 56.1 40 0 32
00:25 1020 30.12 849 25.07 13.6 56.4 39 -0.1 31.9
00:30 1020 30.12 849 25.07 13.7 56.6 38 -0.2 31.6
00:35 1020 30.12 849 25.07 13.8 56.8 38 -0.2 31.6
00:40 1020 30.12 849 25.07 13.8 56.9 37 -0.7 30.7
00:45 1020 30.12 849 25.07 13.9 57 38 -0.2 31.6
00:50 1020 30.12 849 25.07 13.7 56.7 37 -0.4 31.2
00:55 1020 30.12 849 25.07 13.7 56.6 38 -0.2 31.7
01:00 1020 30.12 849 25.07 13.3 55.9 39 -0.2 31.6
01:05 1020 30.12 849 25.07 13 55.5 39 -0.5 31.2
01:10 1020 30.12 849 25.07 12.9 55.1 42 0.2 32.4
01:15 1020 30.12 849 25.07 12.4 54.2 44 0.5 33
01:20 1020 30.12 849 25.07 11.8 53.2 46 0.6 33.1
01:25 1020 30.12 849 25.07 11.7 53.1 42 -0.6 30.9
01:30 1020 30.12 849 25.07 11.9 53.4 45 0.5 32.8
01:35 1020 30.12 849 25.07 11.6 52.9 44 -0.1 31.8
01:40 1020 30.12 849 25.07 12 53.7 39 -1.4 29.5
01:45 1020 30.12 849 25.07 12.7 54.8 41 -0.1 31.7
01:50 1020 30.12 849 25.07 12 53.7 44 0.1 32.2
01:55 1020 30.12 849 25.07 11.7 53.1 43 -0.3 31.5
02:00 1020 30.12 849 25.07 12.1 53.7 41 -0.8 30.6
02:05 1020 30.12 849 25.07 12.3 54.2 41 -0.6 30.9
02:10 1020 30.12 849 25.07 12.4 54.3 42 -0.1 31.7
02:15 1020 30.12 849 25.07 12.2 53.9 42 -0.4 31.3
02:20 1020 30.12 849 25.07 12.1 53.7 41 -0.6 30.9
02:25 1020 30.12 849 25.07 12.2 54 41 -0.6 31
02:30 1020 30.12 849 25.07 12.5 54.6 42 -0 31.9
02:35 1020 30.12 849 25.07 12 53.6 41 -0.7 30.8
02:40 1020 30.12 849 25.07 12.2 53.9 40 -0.8 30.6
02:45 1020 30.12 849 25.07 12.4 54.3 40 -0.6 30.9
02:50 1020 30.12 849 25.07 12.4 54.3 40 -0.9 30.4
02:55 1020 30.12 849 25.07 12.3 54.1 40 -0.8 30.5
03:00 1020 30.12 849 25.07 12.1 53.8 42 -0.4 31.2
03:05 1020 30.12 849 25.07 11.7 53 43 -0.3 31.4
03:10 1020 30.12 849 25.07 11.3 52.3 47 0.3 32.6
03:15 1020 30.12 849 25.07 11 51.8 45 -0.5 31
03:20 1020 30.12 849 25.07 11.4 52.4 43 -0.7 30.8
03:25 1020 30.12 849 25.07 11.6 52.8 43 -0.6 31
03:30 1020 30.12 849 25.07 11.6 52.9 43 -0.3 31.4
03:35 1020 30.12 849 25.07 11.3 52.3 46 0.2 32.4
03:40 1020 30.12 849 25.07 10.7 51.3 47 0.1 32.1
03:45 1020 30.12 849 25.07 10.6 51 49 0.3 32.5
03:50 1020 30.12 849 25.07 10.2 50.4 49 0.2 32.3
03:55 1020 30.12 849 25.07 10.2 50.4 47 -0.5 31.1
04:00 1020 30.12 849 25.07 10.4 50.8 47 -0.4 31.3
04:05 1020 30.12 849 25.07 10.8 51.5 43 -1.2 29.9
04:10 1020 30.12 849 25.07 11.4 52.6 43 -0.8 30.6
04:15 1020 30.12 849 25.07 11.5 52.8 43 -0.6 30.8
04:20 1020 30.12 850 25.1 11.4 52.6 43 -0.7 30.8
04:25 1020 30.12 850 25.1 11.3 52.3 45 -0.3 31.5
04:30 1020 30.12 850 25.1 10.9 51.6 49 0.7 33.3
04:35 1020 30.12 850 25.1 10 50 51 0.3 32.6
04:40 1020 30.12 850 25.1 10.2 50.3 47 -0.5 31.1
04:45 1020 30.12 850 25.1 10.4 50.8 48 -0.2 31.7
04:50 1021 30.15 850 25.1 10.4 50.7 48 -0.2 31.7
04:55 1021 30.15 850 25.1 10.1 50.1 50 0.1 32.2
05:00 1021 30.15 850 25.1 9.8 49.6 54 1 33.8
05:05 1021 30.15 850 25.1 9.1 48.5 56 0.9 33.7
05:10 1021 30.15 850 25.1 9.1 48.4 54 0.3 32.5
05:15 1021 30.15 850 25.1 9.5 49.1 55 0.9 33.7
05:20 1021 30.15 850 25.1 8.9 48.1 55 0.4 32.8
05:25 1021 30.15 850 25.1 9.2 48.5 53 0.2 32.4
05:30 1021 30.15 850 25.1 8.9 48.1 56 0.8 33.4
05:35 1021 30.15 850 25.1 8.6 47.4 54 -0.2 31.7
05:40 1021 30.15 850 25.1 9.2 48.6 54 0.3 32.6
05:45 1021 30.15 850 25.1 8.9 48 53 -0.1 31.9
05:50 1021 30.15 850 25.1 8.8 47.8 54 -0 31.9
05:55 1021 30.15 850 25.1 8.7 47.7 54 0 32.1
06:00 1021 30.15 850 25.1 8.5 47.2 55 0 32.1
06:05 1021 30.15 850 25.1 8.4 47.2 56 0.2 32.3
06:10 1021 30.15 850 25.1 8.4 47.1 55 -0 31.9
06:15 1021 30.15 850 25.1 8.6 47.5 55 0.1 32.1
06:20 1021 30.15 850 25.1 8.7 47.7 52 -0.5 31.1
06:25 1021 30.15 850 25.1 9 48.2 50 -0.9 30.4
06:30 1021 30.15 850 25.1 9.4 49 51 -0.2 31.6
06:35 1021 30.15 850 25.1 8.8 47.9 54 0 32
06:40 1021 30.15 850 25.1 8.3 46.9 55 -0.1 31.8
06:45 1021 30.15 850 25.1 8.2 46.8 57 0.1 32.3
06:50 1021 30.15 850 25.1 7.9 46.2 58 0.1 32.2
06:55 1021 30.15 850 25.1 7.9 46.3 57 -0 32
07:00 1021 30.15 850 25.1 8.3 46.9 54 -0.5 31.2
07:05 1021 30.15 850 25.1 8.6 47.4 56 0.2 32.4
07:10 1021 30.15 850 25.1 8.2 46.8 55 -0.2 31.6
07:15 1021 30.15 851 25.13 8.3 47 56 0 32.1
07:20 1021 30.15 851 25.13 8.3 47 53 -0.6 30.9
07:25 1021 30.15 851 25.13 8.9 48 53 -0.2 31.7
07:30 1021 30.15 851 25.13 9 48.2 53 -0.1 31.9
07:35 1022 30.18 851 25.13 8.8 47.9 54 -0 31.9
07:40 1022 30.18 851 25.13 8.9 48 54 0.1 32.2
07:45 1022 30.18 851 25.13 8.8 47.8 55 0.3 32.5
07:50 1022 30.18 851 25.13 9 48.2 49 -1 30.2
07:55 1022 30.18 851 25.13 10.2 50.3 48 -0.3 31.5
08:00 1022 30.18 851 25.13 10.5 50.8 47 -0.2 31.7
08:05 1022 30.18 851 25.13 10.6 51.1 47 -0.2 31.7
08:10 1022 30.18 851 25.13 10.9 51.6 46 -0.3 31.4
08:15 1022 30.18 851 25.13 10.9 51.7 49 0.8 33.4
08:20 1022 30.18 851 25.13 10.9 51.7 49 0.8 33.4
08:25 1022 30.18 851 25.13 11.2 52.1 46 -0.1 31.9
08:30 1022 30.18 851 25.13 11.6 52.8 47 0.5 33
08:35 1022 30.18 851 25.13 12.2 53.9 45 0.7 33.2
08:40 1022 30.18 851 25.13 12.5 54.5 47 1.6 34.9
08:45 1022 30.18 851 25.13 12.2 53.9 48 1.6 34.8
08:50 1022 30.18 851 25.13 12.2 54 50 2.2 36
08:55 1022 30.18 851 25.13 12.6 54.6 49 2.2 36
09:00 1022 30.18 851 25.13 13 55.5 48 2.4 36.4
09:05 1022 30.18 851 25.13 13.6 56.4 47 2.6 36.6
09:10 1022 30.18 851 25.13 13.9 56.9 46 2.6 36.7
09:15 1022 30.18 851 25.13 14.1 57.3 44 2 35.6
09:20 1022 30.18 851 25.13 14.4 57.9 43 1.9 35.5
09:25 1022 30.18 851 25.13 15.3 59.5 40 2 35.7
09:30 1022 30.18 851 25.13 15.8 60.4 40 2.5 36.5
09:35 1022 30.18 851 25.13 16.2 61.1 39 2.4 36.3
09:40 1022 30.18 851 25.13 16.9 62.4 38 2.7 36.8
09:45 1022 30.18 851 25.13 17.3 63.2 37 2.5 36.4
09:50 1022 30.18 851 25.13 17.3 63.2 39 3.3 38
09:55 1022 30.18 851 25.13 17.4 63.4 35 2.1 35.8
10:00 1022 30.18 851 25.13 17.7 63.9 35 2.3 36.2
10:05 1022 30.18 851 25.13 17.1 62.7 36 1.9 35.5
10:10 1022 30.18 851 25.13 17 62.6 35 1.4 34.6
10:15 1022 30.18 851 25.13 17.1 62.8 33 1 33.9
10:20 1022 30.18 851 25.13 17.5 63.5 34 1.4 34.6
10:25 1022 30.18 851 25.13 18.3 64.9 30 0.5 32.8
10:30 1022 30.18 851 25.13 18.6 65.5 32 1.6 34.8
10:35 1022 30.18 851 25.13 18.6 65.4 32 1.5 34.7
10:40 1022 30.18 851 25.13 17.9 64.1 32 1.1 34.1
10:45 1022 30.18 851 25.13 17.7 63.8 30 0.2 32.3
10:50 1022 30.18 851 25.13 18 64.5 31 0.6 33
10:55 1022 30.18 851 25.13 18.4 65.2 30 0.5 32.8
11:00 1022 30.18 851 25.13 19.2 66.6 27 0.2 32.3
11:05 1022 30.18 851 25.13 19.5 67 29 1 33.9
11:10 1022 30.18 851 25.13 19.4 66.9 28 0.7 33.2
11:15 1022 30.18 851 25.13 19.8 67.7 29 1.6 34.9
11:20 1022 30.18 851 25.13 20 68 28 1.3 34.4
11:25 1022 30.18 851 25.13 19.2 66.5 29 0.9 33.5
11:30 1022 30.18 851 25.13 20 68 28 1.1 34
11:35 1022 30.18 851 25.13 20.8 69.4 27 1.3 34.4
11:40 1022 30.18 851 25.13 20.9 69.7 26 1.1 34
11:45 1022 30.18 851 25.13 21 69.7 27 1.4 34.5
11:50 1022 30.18 851 25.13 20.5 68.8 29 1.9 35.3
11:55 1022 30.18 851 25.13 20.8 69.5 28 1.9 35.4
12:00 1022 30.18 851 25.13 20.9 69.5 27 1.5 34.6
12:05 1022 30.18 851 25.13 21.2 70.2 27 1.8 35.2
12:10 1022 30.18 851 25.13 21 69.8 27 1.7 35.1
12:15 1022 30.18 851 25.13 20.7 69.2 27 1.3 34.3
12:20 1022 30.18 851 25.13 20.5 68.9 28 1.6 34.8
12:25 1022 30.18 851 25.13 21.5 70.7 27 1.9 35.4
12:30 1021 30.15 851 25.13 21.1 70.1 28 1.9 35.4
12:35 1021 30.15 851 25.13 21.4 70.5 27 2 35.6
12:40 1021 30.15 851 25.13 20.6 69.1 29 2.4 36.2
12:45 1021 30.15 851 25.13 21.1 69.9 26 1.3 34.3
12:50 1021 30.15 851 25.13 20.9 69.7 27 1.6 34.9
12:55 1021 30.15 851 25.13 22 71.7 26 1.7 35
13:00 1021 30.15 850 25.1 23.1 73.6 23 1.1 33.9
13:05 1021 30.15 850 25.1 23 73.4 24 1.4 34.6
13:10 1021 30.15 850 25.1 23.5 74.4 24 1.9 35.4
13:15 1021 30.15 850 25.1 23.2 73.8 25 2.5 36.4
13:20 1021 30.15 850 25.1 23.5 74.3 24 2 35.6
13:25 1021 30.15 850 25.1 24.1 75.5 23 1.8 35.2
13:30 1021 30.15 850 25.1 24 75.1 23 1.9 35.5
13:35 1021 30.15 850 25.1 24.5 76.1 22 1.8 35.3
13:40 1021 30.15 850 25.1 24.7 76.5 24 2.9 37.2
13:45 1021 30.15 850 25.1 23.5 74.2 25 2.4 36.3
13:50 1021 30.15 850 25.1 22.9 73.2 24 1.7 35
13:55 1021 30.15 850 25.1 24 75.2 19 -0.5 31.2
14:00 1021 30.15 850 25.1 24.6 76.2 22 1.5 34.8
14:05 1021 30.15 850 25.1 24.1 75.4 25 3.1 37.5
14:10 1021 30.15 850 25.1 23.5 74.3 24 2.1 35.7
14:15 1021 30.15 850 25.1 24 75.3 20 0.2 32.3
14:20 1021 30.15 850 25.1 24.3 75.7 14 -4.3 24.2
14:25 1021 30.15 850 25.1 24.5 76.2 18 -0.8 30.6
14:30 1021 30.15 850 25.1 23.1 73.5 20 -1.2 29.8
14:35 1020 30.12 850 25.1 22.9 73.2 21 -0.5 31.1
14:40 1020 30.12 850 25.1 23.2 73.7 20 -0.6 30.8
14:45 1020 30.12 850 25.1 23.2 73.8 19 -1.2 29.8
14:50 1020 30.12 850 25.1 23.7 74.7 16 -3.2 26.3
14:55 1020 30.12 850 25.1 23.9 75.1 18 -1.6 29.2
15:00 1020 30.12 850 25.1 23.9 75.1 18 -1.8 28.8
15:05 1020 30.12 850 25.1 24.6 76.2 17 -2.2 28
15:10 1020 30.12 849 25.07 24 75.2 17 -2.5 27.4
15:15 1020 30.12 849 25.07 24.8 76.6 17 -1.8 28.7
15:20 1020 30.12 849 25.07 24.1 75.4 18 -1.3 29.7
15:25 1020 30.12 849 25.07 24.8 76.6 18 -1.1 29.9
15:30 1020 30.12 849 25.07 24.8 76.6 17 -1.8 28.8
15:35 1020 30.12 849 25.07 24 75.2 17 -2 28.5
15:40 1020 30.12 849 25.07 24.8 76.6 17 -1.9 28.6
15:45 1020 30.12 849 25.07 25 76.9 17 -1.2 29.9
15:50 1020 30.12 849 25.07 24.6 76.3 17 -1.4 29.4
15:55 1020 30.12 849 25.07 24.2 75.6 18 -1.2 29.8
16:00 1020 30.12 849 25.07 24.6 76.2 17 -1.9 28.7
16:05 1020 30.12 849 25.07 24.6 76.3 18 -1.2 29.8
16:10 1020 30.12 849 25.07 23.8 74.8 18 -1.8 28.7
16:15 1020 30.12 849 25.07 23.5 74.4 18 -1.6 29.2
16:20 1020 30.12 849 25.07 23.9 75 18 -1.6 29
16:25 1020 30.12 849 25.07 24.4 76 16 -2.5 27.6
16:30 1020 30.12 849 25.07 24.4 75.9 18 -1.5 29.4
16:35 1020 30.12 849 25.07 24.6 76.3 18 -1.1 29.9
16:40 1020 30.12 849 25.07 24.1 75.3 19 -1.1 30.1
16:45 1020 30.12 849 25.07 23.9 74.9 19 -1.2 29.8
16:50 1020 30.12 849 25.07 24.2 75.6 18 -1.5 29.4
16:55 1020 30.12 849 25.07 23.8 74.9 18 -1.8 28.7
17:00 1019 30.09 849 25.07 23.4 74.1 18 -1.8 28.8
17:05 1019 30.09 849 25.07 23.8 74.9 18 -1.4 29.6
17:10 1019 30.09 849 25.07 23.6 74.6 19 -1.4 29.4
17:15 1019 30.09 849 25.07 23.3 74 18 -2.3 27.9
17:20 1019 30.09 849 25.07 23 73.4 18 -2.1 28.3
17:25 1019 30.09 849 25.07 23 73.3 20 -1 30.3
17:30 1019 30.09 849 25.07 22.8 73.1 20 -1.2 29.9
17:35 1019 30.09 849 25.07 22.7 72.9 20 -1.3 29.7
17:40 1019 30.09 849 25.07 22.7 72.9 20 -0.9 30.4
17:45 1019 30.09 849 25.07 22.8 73 20 -1.1 30
17:50 1019 30.09 849 25.07 22.7 72.8 20 -1.2 29.9
17:55 1019 30.09 849 25.07 22.6 72.7 20 -1 30.1
18:00 1019 30.09 849 25.07 22.5 72.4 22 0.1 32.2
18:05 1020 30.12 849 25.07 22.3 72.1 22 0 32
18:10 1020 30.12 849 25.07 22.2 71.9 21 -1.1 30.1
18:15 1020 30.12 849 25.07 22.5 72.5 19 -1.8 28.8
18:20 1020 30.12 849 25.07 22.7 72.9 21 -0.8 30.5
18:25 1020 30.12 849 25.07 22.8 73 21 -0.6 31
18:30 1020 30.12 849 25.07 21.9 71.4 28 2.6 36.6
18:35 1020 30.12 849 25.07 21.1 69.9 32 3.9 39.1
18:40 1020 30.12 849 25.07 20.6 69.1 33 4 39.1
18:45 1020 30.12 849 25.07 20.6 69.1 33 4.1 39.5
18:50 1020 30.12 849 25.07 20.5 68.8 33 3.7 38.7
18:55 1020 30.12 849 25.07 20.3 68.5 26 0.3 32.6
19:00 1019 30.09 849 25.07 20.8 69.4 24 -0.5 31
19:05 1019 30.09 849 25.07 21.2 70.1 22 -1.2 29.9
19:10 1019 30.09 849 25.07 21.5 70.6 21 -1.3 29.6
19:15 1019 30.09 849 25.07 21.3 70.4 23 -0.4 31.2
19:20 1019 30.09 848 25.04 20.9 69.6 25 0.2 32.4
19:25 1019 30.09 848 25.04 20.5 68.9 25 0.2 32.4
19:30 1019 30.09 848 25.04 20.2 68.4 27 0.7 33.3
19:35 1019 30.09 848 25.04 19.9 67.7 29 1.5 34.8
19:40 1019 30.09 849 25.07 19.4 66.8 30 1.5 34.8
19:45 1019 30.09 849 25.07 19.2 66.5 30 1.4 34.6
19:50 1019 30.09 849 25.07 19.1 66.3 31 1.5 34.7
19:55 1019 30.09 849 25.07 19 66.1 31 1.6 34.8
20:00 1019 30.09 849 25.07 18.9 66 30 1.2 34.2
20:05 1019 30.09 849 25.07 19 66.2 30 1 33.9
20:10 1019 30.09 849 25.07 19.1 66.3 30 1.2 34.2
20:15 1019 30.09 849 25.07 18.9 66.1 31 1.7 35.1
20:20 1020 30.12 849 25.07 18.7 65.7 33 2.3 36.1
20:25 1020 30.12 849 25.07 18.6 65.4 33 2.2 35.9
20:30 1020 30.12 849 25.07 18.4 65 33 1.9 35.5
20:35 1020 30.12 849 25.07 18.4 65 31 1.1 33.9
20:40 1020 30.12 849 25.07 18.6 65.5 32 1.7 35.1
20:45 1020 30.12 849 25.07 18.5 65.3 32 1.8 35.2
20:50 1020 30.12 849 25.07 18.4 65.1 34 2.3 36.1
20:55 1020 30.12 849 25.07 18 64.4 36 2.8 37.1
21:00 1020 30.12 849 25.07 17.6 63.7 37 2.9 37.3
21:05 1020 30.12 849 25.07 17.4 63.2 39 3.4 38.1
21:10 1020 30.12 849 25.07 17.1 62.7 41 3.7 38.7
21:15 1020 30.12 849 25.07 17.2 62.9 37 2.6 36.8
21:20 1020 30.12 849 25.07 17.5 63.4 36 2.5 36.5
21:25 1020 30.12 849 25.07 17.6 63.6 35 2 35.7
21:30 1020 30.12 849 25.07 17.8 64 33 1.5 34.7
21:35 1020 30.12 849 25.07 18 64.3 32 1.2 34.1
21:40 1020 30.12 849 25.07 18.3 65 31 1.1 33.9
21:45 1020 30.12 849 25.07 18.5 65.3 30 1 33.8
21:50 1020 30.12 849 25.07 18.4 65.2 32 1.4 34.5
21:55 1020 30.12 849 25.07 18.2 64.8 32 1.3 34.3
22:00 1020 30.12 849 25.07 18 64.5 33 1.7 35.1
22:05 1020 30.12 849 25.07 17.7 63.9 33 1.5 34.6
22:10 1020 30.12 850 25.1 17.7 63.8 33 1.5 34.7
22:15 1020 30.12 850 25.1 17.9 64.1 32 1.3 34.3
22:20 1021 30.15 850 25.1 18 64.5 33 1.5 34.7
22:25 1021 30.15 850 25.1 18 64.4 34 1.9 35.4
22:30 1021 30.15 850 25.1 18 64.4 33 1.4 34.6
22:35 1021 30.15 850 25.1 18 64.4 32 1.4 34.5
22:40 1021 30.15 850 25.1 18 64.5 33 1.5 34.7
22:45 1021 30.15 850 25.1 18 64.4 33 1.6 34.8
22:50 1021 30.15 851 25.13 18 64.4 36 2.8 37.1
22:55 1022 30.18 851 25.13 17.7 63.9 37 3 37.4
23:00 1022 30.18 851 25.13 17.6 63.8 37 2.9 37.1
23:05 1022 30.18 851 25.13 17.6 63.7 37 2.9 37.3
23:10 1022 30.18 851 25.13 17.4 63.3 41 4 39.2
23:15 1022 30.18 851 25.13 16.7 62 45 4.8 40.6
23:20 1022 30.18 851 25.13 16.2 61.2 48 5.2 41.3
23:25 1022 30.18 851 25.13 16 60.9 49 5.6 42
23:30 1022 30.18 851 25.13 16.1 60.9 49 5.6 42.1
23:35 1022 30.18 851 25.13 16.1 61 50 5.9 42.6
23:40 1022 30.18 851 25.13 16 60.8 49 5.3 41.5
23:45 1021 30.15 851 25.13 15.5 60 51 5.6 42
23:50 1021 30.15 850 25.1 15.3 59.6 48 4.6 40.3
23:55 1020 30.12 850 25.1 15.4 59.8 48 4.5 40.2
24:00 1020 30.12 850 25.1 15.3 59.5 50 4.9 40.8